Latest Coastal Weather Observations for Cooktown

IDQ60701

Issued at 7:12 am EST Sunday 24 July 2016 (issued every 10 minutes, with the page automatically refreshed every 10 minutes)

About coastal observations | Map of coastal stations | Coastal observations for QLD | Marine services | Other Formats
Station Details ID: 031209 Name: COOKTOWN AIRPORT Lat: -15.45 Lon: 145.19 Height: 4.8 m
Data from the previous 72 hours. | See also: Recent months at Cooktown
Date/Time
EST
Temp
°C
Wind Pressure Rain since
9am
mm
Weather Cloud Vis
km
Sea
Height
m
Swell
Dir  Spd
kts
Gust
kts
hPa Trend Height
m
Period
s
Dir
24/07:00am 21.2 S 4 4 1013.9 - 0.0 - Partly cloudy 10 - - - -
24/06:30am 21.4 S 4 5 1013.6 - 0.0 - Partly cloudy 10 - - - -
24/06:00am 21.9 SSE 4 5 1013.2 - 0.0 - Mostly clear 10 - - - -
24/05:30am 23.1 ESE 7 10 1013.0 - 0.0 - Partly cloudy 10 - - - -
24/05:00am 22.9 SE 6 9 1012.8 - 0.0 - Partly cloudy 10 - - - -
24/04:30am 23.3 ESE 8 12 1012.7 - 0.0 - Partly cloudy 10 - - - -
24/04:00am 23.3 SE 6 10 1012.7 - 0.0 - Partly cloudy 10 - - - -
24/03:30am 22.7 SE 5 9 1012.7 - 0.0 - Partly cloudy 10 - - - -
24/03:00am 22.1 SSE 5 7 1012.9 - 0.0 - Partly cloudy 10 - - - -
24/02:30am 21.8 SSE 5 6 1013.1 - 0.0 - Partly cloudy 10 - - - -
24/02:00am 22.3 ESE 4 6 1013.2 - 0.0 - Partly cloudy 10 - - - -
24/01:30am 23.4 SE 6 8 1013.5 - 0.0 - Partly cloudy 10 - - - -
24/01:00am 23.4 ESE 7 10 1013.6 - 0.0 - Partly cloudy 10 - - - -
24/12:30am 23.5 ESE 7 9 1013.5 - 0.0 - Partly cloudy 10 - - - -
24/12:00am 23.3 ESE 6 7 1013.5 - 0.0 - Partly cloudy 10 - - - -
 
Date/Time
EST
Temp
°C
Wind Pressure Rain since
9am
mm
Weather Cloud Vis
km
Sea
Height
m
Swell
Dir  Spd
kts
Gust
kts
hPa Trend Height
m
Period
s
Dir
23/11:30pm 23.1 ESE 6 7 1013.7 - 0.0 - Partly cloudy 10 - - - -
23/11:00pm 23.2 SE 6 9 1013.6 - 0.0 - - 10 - - - -
23/10:30pm 23.1 SE 6 8 1013.7 - 0.0 - Partly cloudy 10 - - - -
23/10:00pm 23.1 ESE 6 9 1013.8 - 0.0 - - 10 - - - -
23/09:30pm 23.2 SE 6 9 1013.6 - 0.0 - - 10 - - - -
23/09:00pm 22.7 SSE 5 9 1013.4 - 0.0 - - 10 - - - -
23/08:30pm 22.7 SE 5 8 1013.2 - 0.0 - - 10 - - - -
23/08:00pm 23.2 SE 5 8 1013.0 - 0.0 - - 10 - - - -
23/07:30pm 23.4 SE 5 8 1012.8 - 0.0 - Partly cloudy 10 - - - -
23/07:28pm 23.3 SE 6 11 1012.8 - 0.0 - Partly cloudy 10 - - - -
23/07:00pm 23.3 E 5 6 1012.6 - 0.0 - Partly cloudy 10 - - - -
23/06:32pm 23.2 E 7 11 1012.5 - 0.0 - Partly cloudy 10 - - - -
23/06:30pm 23.2 E 7 11 1012.5 - 0.0 - Partly cloudy 10 - - - -
23/06:00pm 24.0 ESE 9 14 1012.2 - 0.0 - - 10 - - - -
23/05:30pm 24.7 ESE 10 13 1011.8 - 0.0 - - 10 - - - -
23/05:00pm 25.4 ESE 11 16 1011.7 - 0.0 - - 10 - - - -
23/04:30pm 26.0 ESE 9 14 1011.5 - 0.0 - Partly cloudy 10 - - - -
23/04:00pm 26.4 ESE 10 14 1011.3 - 0.0 - Cloudy 10 - - - -
23/03:30pm 26.8 ESE 10 14 1011.3 - 0.0 - Partly cloudy 10 - - - -
23/03:00pm 27.2 SE 8 14 1011.5 - 0.0 - Mostly cloudy 10 - - - -
23/02:30pm 26.2 SE 7 13 1011.8 - 0.0 - Partly cloudy 10 - - - -
23/02:00pm 26.9 ESE 11 15 1012.1 - 0.0 - Partly cloudy 10 - - - -
23/01:30pm 26.6 SE 7 11 1012.6 - 0.0 - Partly cloudy 10 - - - -
23/01:00pm 26.3 ESE 10 16 1013.0 - 0.0 - Partly cloudy 10 - - - -
23/12:30pm 27.1 ESE 9 13 1013.4 - 0.0 - Partly cloudy 10 - - - -
23/12:00pm 26.5 ESE 11 15 1013.7 - 0.0 - Cloudy 10 - - - -
23/11:30am 27.3 SE 7 10 1013.7 - 0.0 - Partly cloudy 10 - - - -
23/11:00am 27.3 E 10 15 1014.1 - 0.0 - Partly cloudy 10 - - - -
23/10:00am 25.5 SE 8 11 1014.9 - 0.0 - Partly cloudy 10 - - - -
23/09:30am 23.6 WNW 2 4 1015.0 - 0.0 - Partly cloudy 10 - - - -
23/09:00am 21.7 NW 3 4 1014.9 S 0.0 Fine Mostly cloudy 35 - - - -
23/08:30am 20.8 WNW 3 4 1014.7 - 0.0 - Partly cloudy 10 - - - -
23/08:00am 20.0 WNW 3 4 1014.3 - 0.0 - Partly cloudy 10 - - - -
23/07:30am 19.0 CALM 0 0 1014.2 - 0.0 - Partly cloudy 10 - - - -
23/07:00am 18.7 WNW 2 3 1013.9 - 0.0 - Partly cloudy 10 - - - -
23/06:30am 18.2 WNW 1 3 1013.7 - 0.0 - - 10 - - - -
23/06:00am 18.8 CALM 0 0 1013.6 - 0.0 - Partly cloudy 10 - - - -
23/05:30am 18.2 W 1 4 1013.2 - 0.0 - - 10 - - - -
23/05:00am 19.1 WNW 4 5 1012.9 - 0.0 - - 10 - - - -
23/04:30am 19.7 W 4 5 1012.8 - 0.0 - Partly cloudy 10 - - - -
23/04:00am 20.3 CALM 0 0 1012.7 - 0.0 - Partly cloudy 10 - - - -
23/03:30am 21.7 S 5 7 1012.7 - 0.0 - - 10 - - - -
23/03:00am 22.6 SE 7 10 1012.8 - 0.0 - - 10 - - - -
23/02:30am 22.9 ESE 9 14 1012.8 - 0.0 - Partly cloudy 10 - - - -
23/02:00am 22.5 SSE 5 8 1012.9 - 0.0 - Partly cloudy 10 - - - -
23/01:30am 22.8 E 8 11 1013.1 - 0.0 - Partly cloudy 10 - - - -
23/01:00am 22.4 SE 7 11 1013.4 - 0.0 - Partly cloudy 10 - - - -
23/12:30am 21.6 SSE 3 5 1013.7 - 0.0 - - 10 - - - -
23/12:00am 21.4 SSE 4 6 1013.8 - 0.0 - Mostly clear 10 - - - -
 
Date/Time
EST
Temp
°C
Wind Pressure Rain since
9am
mm
Weather Cloud Vis
km
Sea
Height
m
Swell
Dir  Spd
kts
Gust
kts
hPa Trend Height
m
Period
s
Dir
22/11:30pm 19.9 S 2 4 1014.0 - 0.0 - - 10 - - - -
22/11:00pm 20.5 S 4 7 1014.0 - 0.0 - - 10 - - - -
22/10:30pm 19.5 NW 1 4 1014.1 - 0.0 - - 10 - - - -
22/10:00pm 20.2 WNW 4 6 1014.0 - 0.0 - - 10 - - - -
22/09:30pm 19.6 NNW 2 4 1013.8 - 0.0 - - 10 - - - -
22/09:00pm 19.7 CALM 0 0 1013.7 - 0.0 - - 10 - - - -
22/08:30pm 20.2 CALM 0 0 1013.5 - 0.0 - - 10 - - - -
22/08:00pm 20.7 CALM 0 0 1013.4 - 0.0 - - 10 - - - -
22/07:30pm 20.9 CALM 0 0 1013.3 - 0.0 - - 10 - - - -
22/07:00pm 22.1 SE 3 4 1013.1 - 0.0 - - 10 - - - -
22/06:30pm 23.0 ESE 5 7 1012.7 - 0.0 - - 10 - - - -
22/06:00pm 23.8 SE 6 8 1012.6 - 0.0 - - 10 - - - -
22/05:30pm 24.6 SE 7 12 1012.6 - 0.0 - - 10 - - - -
22/05:00pm 25.2 SE 8 11 1012.6 - 0.0 - - 10 - - - -
22/04:30pm 26.1 SE 7 10 1012.5 - 0.0 - Partly cloudy 10 - - - -
22/04:00pm 26.2 SE 7 13 1012.4 - 0.0 - Partly cloudy 10 - - - -
22/03:30pm 26.1 SE 7 11 1012.7 - 0.0 - Partly cloudy 10 - - - -
22/03:00pm 25.7 SE 9 13 1012.9 - 0.0 - Cloudy 10 - - - -
22/02:30pm 26.4 SE 8 13 1013.3 - 0.0 - Cloudy 10 - - - -
22/02:00pm 25.9 SE 11 22 1013.7 - 0.0 - Partly cloudy 10 - - - -
22/01:30pm 27.0 ESE 10 14 1013.8 - 0.0 - Partly cloudy 10 - - - -
22/01:00pm 27.3 SE 10 16 1014.3 - 0.0 - Partly cloudy 10 - - - -
22/12:30pm 24.8 ESE 10 17 1014.7 - 0.0 - Partly cloudy 10 - - - -
22/12:00pm 26.4 SE 10 16 1015.0 - 0.0 - Mostly cloudy 10 - - - -
22/11:30am 26.5 ESE 10 15 1015.3 - 0.0 - Partly cloudy 10 - - - -
22/11:00am 26.3 SE 10 15 1015.7 - 0.0 - Partly cloudy 10 - - - -
22/10:30am 25.7 SSE 10 16 1015.8 - 0.0 - Partly cloudy 10 - - - -
22/10:00am 25.7 SSE 10 14 1015.9 - 0.0 - Partly cloudy 10 - - - -
22/09:30am 25.1 SE 9 15 1015.9 - 0.0 - Partly cloudy 10 - - - -
22/09:00am 25.5 SE 8 11 1015.7 R 4.0 Haze Mostly clear 30 - - - -
22/08:30am 25.0 SE 7 10 1015.4 - 4.0 - - 10 - - - -
22/08:00am 23.7 SSE 5 8 1015.1 - 4.0 - Partly cloudy 10 - - - -
22/07:30am 22.2 S 4 7 1014.8 - 4.0 - Partly cloudy 10 - - - -
22/07:00am 23.0 SE 7 11 1014.6 - 4.0 - Partly cloudy 10 - - - -
22/06:30am 22.6 SE 6 8 1014.4 - 4.0 - Partly cloudy 10 - - - -
22/06:00am 22.6 S 5 6 1014.2 - 4.0 - Cloudy 10 - - - -
22/05:58am 22.6 S 4 6 1014.2 - 4.0 - Partly cloudy 10 - - - -
22/05:54am 22.6 S 5 7 1014.1 - 4.0 - Partly cloudy 10 - - - -
22/05:47am 22.7 S 6 8 1014.1 - 4.0 - Partly cloudy 9 - - - -
22/05:37am 23.0 SE 9 13 1014.0 - 3.8 - Partly cloudy 5 - - - -
22/05:30am 23.2 E 8 11 1013.9 - 3.6 - Partly cloudy 10 - - - -
22/05:00am 22.5 E 5 8 1013.6 - 3.6 - Partly cloudy 10 - - - -
22/04:43am 22.4 ESE 9 13 1013.7 - 3.6 - Partly cloudy 10 - - - -
22/04:30am 22.2 ESE 8 11 1013.7 - 3.6 - Partly cloudy 4 - - - -
22/04:19am 22.3 SE 10 15 1013.8 - 3.6 - Partly cloudy 5 - - - -
22/04:17am 22.4 SE 9 15 1013.8 - 3.6 - Partly cloudy 8 - - - -
22/04:00am 22.6 SE 9 13 1013.7 - 3.4 - Partly cloudy 4 - - - -
22/03:58am 22.7 SE 9 13 1013.8 - 3.4 - Partly cloudy 5 - - - -
22/03:54am 22.8 SE 10 15 1013.7 - 3.4 - Partly cloudy 8 - - - -
22/03:44am 22.8 SE 9 17 1013.7 - 3.4 - Partly cloudy 5 - - - -
22/03:30am 23.1 SE 8 12 1013.8 - 3.4 - Partly cloudy 10 - - - -
22/03:26am 23.2 SE 9 13 1013.7 - 3.4 - Partly cloudy 10 - - - -
22/03:07am 23.1 SE 8 12 1013.8 - 3.4 - Partly cloudy 10 - - - -
22/03:05am 23.1 SE 8 13 1013.8 - 3.4 - Partly cloudy 10 - - - -
22/03:04am 23.1 SE 8 13 1013.8 - 3.4 - Partly cloudy 10 - - - -
22/03:00am 23.1 SE 10 16 1013.8 - 3.4 - Cloudy 10 - - - -
22/02:45am 23.3 ESE 9 14 1013.9 - 3.0 - Partly cloudy 5 - - - -
22/02:42am 23.5 ESE 10 14 1013.8 - 2.4 - Partly cloudy 10 - - - -
22/02:30am 23.4 ESE 8 14 1013.8 - 2.4 - Partly cloudy 10 - - - -
22/02:08am 23.0 E 7 10 1014.0 - 2.4 - Partly cloudy 10 - - - -
22/02:04am 23.0 E 7 11 1014.1 - 2.4 - Partly cloudy 10 - - - -
22/02:00am 22.9 ESE 9 12 1014.1 - 2.4 - Partly cloudy 10 - - - -
22/01:39am 22.8 SSE 5 8 1014.3 - 2.0 - Partly cloudy 5 - - - -
22/01:35am 22.8 SSE 5 8 1014.2 - 1.8 - Partly cloudy 10 - - - -
22/01:30am 22.8 SE 6 9 1014.2 - 1.8 - Partly cloudy 10 - - - -
22/01:19am 22.8 SE 8 11 1014.3 - 1.8 - Partly cloudy 8 - - - -
22/01:13am 22.7 SE 9 16 1014.4 - 1.8 - Partly cloudy 8 - - - -
22/01:00am 22.7 SE 12 21 1014.5 - 1.8 - Partly cloudy 4 - - - -
22/12:53am 23.0 SSE 9 18 1014.6 - 1.8 - Partly cloudy 5 - - - -
22/12:30am 23.5 ESE 7 13 1014.5 - 1.6 - Partly cloudy 10 - - - -
22/12:14am 23.5 ESE 9 13 1014.5 - 1.6 - Partly cloudy 10 - - - -
22/12:11am 23.5 ESE 8 13 1014.5 - 1.6 - Partly cloudy 10 - - - -
22/12:02am 23.2 SE 6 10 1014.5 - 1.6 - Partly cloudy 10 - - - -
22/12:00am 23.2 ESE 6 10 1014.6 - 1.6 - Cloudy 9 - - - -
 
Date/Time
EST
Temp
°C
Wind Pressure Rain since
9am
mm
Weather Cloud Vis
km
Sea
Height
m
Swell
Dir  Spd
kts
Gust
kts
hPa Trend Height
m
Period
s
Dir
21/11:45pm 23.4 SE 10 17 1014.6 - 1.6 - Partly cloudy 5 - - - -
21/11:43pm 23.5 SE 9 17 1014.6 - 1.6 - Partly cloudy 8 - - - -
21/11:30pm 23.2 ESE 6 11 1014.6 - 1.4 - Partly cloudy 5 - - - -
21/11:29pm 23.3 ESE 6 11 1014.7 - 1.4 - Partly cloudy 6 - - - -
21/11:00pm 23.2 SE 7 9 1014.9 - 1.0 - Partly cloudy 4 - - - -
21/10:39pm 23.3 ESE 9 14 1015.0 - 0.6 - Partly cloudy 5 - - - -
21/10:38pm 23.4 SE 9 14 1015.0 - 0.6 - Partly cloudy 5 - - - -
21/10:37pm 23.4 SE 10 14 1015.0 - 0.6 - Partly cloudy 5 - - - -
21/10:30pm 23.8 SE 9 15 1015.0 - 0.6 - Partly cloudy 10 - - - -
21/10:12pm 24.2 ESE 8 11 1015.0 - 0.6 - Partly cloudy 10 - - - -
21/10:00pm 24.1 ESE 9 13 1015.0 - 0.6 - Partly cloudy 10 - - - -
21/09:30pm 23.9 ESE 9 12 1014.9 - 0.6 - Partly cloudy 10 - - - -
21/09:10pm 23.5 SE 5 7 1014.8 - 0.6 - Partly cloudy 10 - - - -
21/09:00pm 23.7 SSE 4 6 1014.8 - 0.6 - Cloudy 10 - - - -
21/08:51pm 23.7 S 4 6 1014.8 - 0.6 - Partly cloudy 10 - - - -
21/08:30pm 23.8 SE 5 8 1014.6 - 0.6 - Partly cloudy 10 - - - -
21/08:00pm 23.8 SE 6 10 1014.4 - 0.6 - Partly cloudy 10 - - - -
21/07:42pm 23.7 SE 6 8 1014.3 - 0.4 - Partly cloudy 10 - - - -
21/07:30pm 23.7 SSE 7 9 1014.1 - 0.4 - Partly cloudy 4 - - - -
21/07:25pm 23.7 SSE 7 9 1014.1 - 0.4 - Partly cloudy 5 - - - -
21/07:00pm 23.7 SE 5 7 1013.9 - 0.2 - Partly cloudy 10 - - - -
21/06:30pm 24.0 SE 6 9 1013.5 - 0.2 - Partly cloudy 10 - - - -
21/06:03pm 24.2 SE 7 10 1013.3 - 0.2 - Partly cloudy 10 - - - -
21/06:00pm 24.3 SE 7 10 1013.3 - 0.2 - Cloudy 10 - - - -
21/05:35pm 24.4 SE 7 12 1013.1 - 0.2 - Partly cloudy 10 - - - -
21/05:30pm 24.4 SE 6 9 1013.0 - 0.2 - Partly cloudy 10 - - - -
21/05:11pm 24.4 SE 7 10 1013.0 - 0.2 - Partly cloudy 10 - - - -
21/05:00pm 24.4 ESE 10 16 1012.9 - 0.2 - Partly cloudy 5 - - - -
21/04:58pm 24.4 ESE 10 16 1012.9 - 0.2 - Partly cloudy 5 - - - -
21/04:30pm 25.4 ESE 8 13 1012.6 - 0.2 - Partly cloudy 10 - - - -
21/04:25pm 25.5 ESE 10 18 1012.6 - 0.2 - Partly cloudy 10 - - - -
21/04:00pm 25.9 SE 8 11 1012.6 - 0.2 - Partly cloudy 10 - - - -
21/03:30pm 26.5 ESE 9 14 1012.6 - 0.2 - Partly cloudy 10 - - - -
21/03:00pm 27.0 SE 11 15 1012.8 - 0.2 - Cloudy 10 - - - -
21/02:35pm 26.3 SE 10 15 1013.0 - 0.2 - Partly cloudy 10 - - - -
21/02:30pm 26.3 SE 9 14 1013.0 - 0.2 - Partly cloudy 10 - - - -
21/02:15pm 26.4 SE 11 19 1013.2 - 0.2 - Partly cloudy 10 - - - -
21/02:00pm 27.4 SE 10 16 1013.2 - 0.0 - Partly cloudy 10 - - - -
21/01:40pm 25.8 SE 11 16 1013.6 - 0.0 - Partly cloudy 10 - - - -
21/01:30pm 26.1 ESE 11 16 1013.7 - 0.0 - Partly cloudy 10 - - - -
21/01:00pm 26.0 SE 8 11 1014.1 - 0.0 - Partly cloudy 10 - - - -
21/12:36pm 25.1 ESE 8 14 1014.3 - 0.0 - Partly cloudy 10 - - - -
21/12:30pm 25.1 ESE 10 17 1014.4 - 0.0 - Partly cloudy 10 - - - -
21/12:25pm 24.9 ESE 12 22 1014.5 - 0.0 - Partly cloudy 5 - - - -
21/12:00pm 26.8 ESE 11 21 1014.6 - 0.0 - Cloudy 10 - - - -
21/11:58am 26.9 ESE 12 16 1014.6 - 0.0 - Partly cloudy 10 - - - -
21/11:47am 26.6 SE 11 15 1014.7 - 0.0 - Partly cloudy 10 - - - -
21/11:30am 26.9 SE 11 16 1014.9 - 0.0 - Partly cloudy 10 - - - -
21/11:00am 26.6 SE 10 15 1015.2 - 0.0 - Partly cloudy 10 - - - -
21/10:57am 26.4 SE 9 15 1015.2 - 0.0 - Partly cloudy 10 - - - -
21/10:30am 25.7 SE 8 12 1015.3 - 0.0 - Partly cloudy 10 - - - -
21/10:07am 25.6 SE 8 14 1015.5 - 0.0 - Partly cloudy 10 - - - -
21/10:00am 25.6 SE 8 11 1015.5 - 0.0 - Partly cloudy 10 - - - -
21/09:30am 25.4 ESE 8 14 1015.6 - 0.0 - Partly cloudy 10 - - - -
21/09:29am 25.4 ESE 8 14 1015.5 - 0.0 - Partly cloudy 10 - - - -
21/09:00am 25.2 SE 7 12 1015.3 R 9.8 Fine Cloudy 35 - - - -
21/08:49am 25.1 ESE 7 11 1015.2 - 9.8 - Partly cloudy 10 - - - -
21/08:30am 24.8 ESE 8 11 1015.0 - 9.8 - Partly cloudy 10 - - - -
21/08:00am 23.9 E 9 13 1014.7 - 9.8 - Partly cloudy 10 - - - -
21/07:52am 23.6 E 9 11 1014.7 - 9.8 - Partly cloudy 10 - - - -
21/07:45am 23.5 E 11 15 1014.6 - 9.8 - Partly cloudy 10 - - - -
21/07:30am 23.8 E 10 18 1014.4 - 9.8 - Partly cloudy 4 - - - -
21/07:29am 23.8 E 9 18 1014.3 - 9.8 - Partly cloudy 5 - - - -
21/07:23am 23.8 E 9 12 1014.2 - 9.6 - Partly cloudy 10 - - - -
21/07:17am 23.8 E 10 14 1014.2 - 9.6 - Partly cloudy 10 - - - -

Other Formats:

Comma delimited format used in spreadsheet applications
http://www.bom.gov.au/fwo/IDQ60701/IDQ60701.95283.axf

JavaScript Object Notation format (JSON) in row-major order
http://www.bom.gov.au/fwo/IDQ60701/IDQ60701.95283.json